createdAt,value
2019-04-26T00:00:10.189Z,17.50
2019-04-26T00:02:41.062Z,17.10
2019-04-26T00:05:10.472Z,17.00
2019-04-26T00:07:39.612Z,17.10
2019-04-26T00:10:10.511Z,17.20
2019-04-26T00:12:58.645Z,17.10
2019-04-26T00:15:32.446Z,17.00
2019-04-26T00:18:03.340Z,17.20
2019-04-26T00:20:33.207Z,17.10
2019-04-26T00:23:02.103Z,17.30
2019-04-26T00:25:31.018Z,17.30
2019-04-26T00:27:59.758Z,17.20
2019-04-26T00:30:28.630Z,16.90
2019-04-26T00:32:57.379Z,16.80
2019-04-26T00:35:26.138Z,16.80
2019-04-26T00:37:54.827Z,16.90
2019-04-26T00:40:23.671Z,17.20
2019-04-26T00:42:52.918Z,17.20
2019-04-26T00:45:22.948Z,17.10
2019-04-26T00:47:52.106Z,16.90
2019-04-26T00:50:21.380Z,16.80
2019-04-26T00:52:51.123Z,16.60
2019-04-26T00:55:21.935Z,16.60
2019-04-26T00:57:51.495Z,16.60
2019-04-26T01:00:21.578Z,16.70
2019-04-26T01:02:52.096Z,16.70
2019-04-26T01:05:21.015Z,16.70
2019-04-26T01:07:51.417Z,16.60
2019-04-26T01:10:20.253Z,16.60
2019-04-26T01:12:49.110Z,16.60
2019-04-26T01:15:19.995Z,16.60
2019-04-26T01:17:48.446Z,16.70
2019-04-26T01:20:18.927Z,16.60
2019-04-26T01:22:49.911Z,16.50
2019-04-26T01:25:44.257Z,16.50
2019-04-26T01:28:18.085Z,16.50
2019-04-26T01:30:46.684Z,16.70
2019-04-26T01:33:15.614Z,16.80
2019-04-26T01:35:44.601Z,16.90
2019-04-26T01:38:15.475Z,16.80
2019-04-26T01:40:45.932Z,16.80
2019-04-26T01:43:31.315Z,16.80
2019-04-26T01:46:18.286Z,16.70
2019-04-26T01:48:55.967Z,16.70
2019-04-26T01:51:36.526Z,16.60
2019-04-26T01:54:05.430Z,16.60
2019-04-26T01:56:36.507Z,16.60
2019-04-26T01:59:07.447Z,16.60
2019-04-26T02:01:38.207Z,16.50
2019-04-26T02:04:07.134Z,16.40
2019-04-26T02:06:36.159Z,16.50
2019-04-26T02:09:08.101Z,16.50
2019-04-26T02:11:37.490Z,16.50
2019-04-26T02:14:06.409Z,16.50
2019-04-26T02:16:35.452Z,16.50
2019-04-26T02:19:04.362Z,16.50
2019-04-26T02:21:34.846Z,16.50
2019-04-26T02:24:17.196Z,16.50
2019-04-26T02:26:46.743Z,16.50
2019-04-26T02:29:18.511Z,16.50
2019-04-26T02:31:50.283Z,16.50
2019-04-26T02:34:19.103Z,16.50
2019-04-26T02:36:57.749Z,16.60
2019-04-26T02:39:21.429Z,16.60
2019-04-26T02:41:52.784Z,16.70
2019-04-26T02:44:26.632Z,16.70
2019-04-26T02:47:23.997Z,16.70
2019-04-26T02:49:56.621Z,16.70
2019-04-26T02:52:40.269Z,16.70
2019-04-26T02:55:14.948Z,16.70
2019-04-26T02:57:44.437Z,16.70
2019-04-26T03:00:16.312Z,16.70
2019-04-26T03:02:48.428Z,16.70
2019-04-26T03:05:18.227Z,16.70
2019-04-26T03:07:52.903Z,16.70
2019-04-26T03:10:22.405Z,16.70
2019-04-26T03:12:53.300Z,16.70
2019-04-26T03:15:30.351Z,16.70
2019-04-26T03:18:19.487Z,16.70
2019-04-26T03:20:51.245Z,16.70
2019-04-26T03:23:55.612Z,16.60
2019-04-26T03:26:24.971Z,16.70
2019-04-26T03:28:59.511Z,16.70
2019-04-26T03:31:33.886Z,16.70
2019-04-26T03:34:24.360Z,16.60
2019-04-26T03:37:20.861Z,16.80
2019-04-26T03:39:55.987Z,17.40
2019-04-26T03:42:35.182Z,17.40
2019-04-26T03:45:23.289Z,17.10
2019-04-26T03:47:57.929Z,17.00
2019-04-26T03:50:30.383Z,17.20
2019-04-26T03:53:12.608Z,17.30
2019-04-26T03:55:46.036Z,17.50
2019-04-26T03:58:37.769Z,17.40
2019-04-26T04:01:10.278Z,17.20
2019-04-26T04:03:58.170Z,17.30
2019-04-26T04:06:30.821Z,17.50
2019-04-26T04:09:08.174Z,17.30
2019-04-26T04:11:47.389Z,17.50
2019-04-26T04:14:37.754Z,17.60
2019-04-26T04:17:16.921Z,17.50
2019-04-26T04:20:13.744Z,16.80
2019-04-26T04:22:47.325Z,16.60
2019-04-26T04:25:30.874Z,16.60
2019-04-26T04:28:03.444Z,16.80
2019-04-26T04:30:49.028Z,16.90
2019-04-26T04:33:24.005Z,17.00
2019-04-26T04:35:55.865Z,16.70
2019-04-26T04:38:40.849Z,16.60
2019-04-26T04:41:29.304Z,16.50
2019-04-26T04:44:26.696Z,16.70
2019-04-26T04:47:03.036Z,17.00
2019-04-26T04:49:54.027Z,17.20
2019-04-26T04:52:37.538Z,16.90
2019-04-26T04:55:09.283Z,16.80
2019-04-26T04:57:58.986Z,17.00
2019-04-26T05:00:49.298Z,17.20
2019-04-26T05:03:42.336Z,16.90
2019-04-26T05:06:31.535Z,16.80
2019-04-26T05:09:09.146Z,16.70
2019-04-26T05:11:44.835Z,16.50
2019-04-26T05:14:29.185Z,16.50
2019-04-26T05:17:03.918Z,16.50
2019-04-26T05:19:50.655Z,16.80
2019-04-26T05:22:47.227Z,16.90
2019-04-26T05:25:41.573Z,16.80
2019-04-26T05:28:47.494Z,16.60
2019-04-26T05:31:31.819Z,16.60
2019-04-26T05:34:17.049Z,16.60
2019-04-26T05:36:52.658Z,16.50
2019-04-26T05:39:27.611Z,16.60
2019-04-26T05:42:18.863Z,16.50
2019-04-26T05:45:11.408Z,16.50
2019-04-26T05:48:08.255Z,16.30
2019-04-26T05:50:39.441Z,16.30
2019-04-26T05:53:18.719Z,16.40
2019-04-26T05:56:08.311Z,16.40
2019-04-26T05:58:45.918Z,16.20
2019-04-26T06:01:46.070Z,16.20
2019-04-26T06:04:31.213Z,16.20
2019-04-26T06:07:08.064Z,16.30
2019-04-26T06:10:04.874Z,16.40
2019-04-26T06:12:41.158Z,16.50
2019-04-26T06:15:20.401Z,16.70
2019-04-26T06:18:08.239Z,16.80
2019-04-26T06:20:42.827Z,17.00
2019-04-26T06:23:14.672Z,17.10
2019-04-26T06:26:07.527Z,17.20
2019-04-26T06:28:56.348Z,17.30
2019-04-26T06:31:28.142Z,17.40
2019-04-26T06:34:08.740Z,17.50
2019-04-26T06:36:48.171Z,17.60
2019-04-26T06:39:24.530Z,17.70
2019-04-26T06:42:12.792Z,17.70
2019-04-26T06:45:26.331Z,17.80
2019-04-26T06:48:18.680Z,17.80
2019-04-26T06:51:08.565Z,17.90
2019-04-26T06:53:40.644Z,18.00
2019-04-26T06:56:54.036Z,18.10
2019-04-26T06:59:46.677Z,18.20
2019-04-26T07:02:18.512Z,18.20
2019-04-26T07:04:56.397Z,18.20
2019-04-26T07:07:40.047Z,18.30
2019-04-26T07:10:28.089Z,18.40
2019-04-26T07:13:34.072Z,18.40
2019-04-26T07:16:22.423Z,18.40
2019-04-26T07:19:19.501Z,18.30
2019-04-26T07:22:34.767Z,18.40
2019-04-26T07:25:33.679Z,18.40
2019-04-26T07:28:17.415Z,18.30
2019-04-26T07:30:55.179Z,18.40
2019-04-26T07:33:43.337Z,18.40
2019-04-26T07:36:29.588Z,18.40
2019-04-26T07:39:19.881Z,18.30
2019-04-26T07:42:21.142Z,18.20
2019-04-26T07:45:01.990Z,18.20
2019-04-26T07:47:54.087Z,18.10
2019-04-26T07:50:53.002Z,18.20
2019-04-26T07:53:42.254Z,18.30
2019-04-26T07:56:19.258Z,18.30
2019-04-26T07:58:59.647Z,18.40
2019-04-26T08:01:50.778Z,18.40
2019-04-26T08:04:24.186Z,18.40
2019-04-26T08:06:58.639Z,18.40
2019-04-26T08:09:30.423Z,18.50
2019-04-26T08:12:06.076Z,18.50
2019-04-26T08:14:51.355Z,18.50
2019-04-26T08:17:39.233Z,18.70
2019-04-26T08:20:18.440Z,18.70
2019-04-26T08:22:52.282Z,18.70
2019-04-26T08:25:24.186Z,18.80
2019-04-26T08:27:56.197Z,18.90
2019-04-26T08:30:32.140Z,19.00
2019-04-26T08:33:07.811Z,19.00
2019-04-26T08:35:36.387Z,19.10
2019-04-26T08:38:13.658Z,19.10
2019-04-26T08:40:41.220Z,19.10
2019-04-26T08:43:13.901Z,19.00
2019-04-26T08:46:14.567Z,18.90
2019-04-26T08:48:49.731Z,18.80
2019-04-26T08:51:21.880Z,18.80
2019-04-26T08:53:53.280Z,18.70
2019-04-26T08:56:33.870Z,18.60
2019-04-26T08:59:11.583Z,18.70
2019-04-26T09:01:45.482Z,18.70
2019-04-26T09:04:25.619Z,18.60
2019-04-26T09:07:00.765Z,18.70
2019-04-26T09:09:32.560Z,18.80
2019-04-26T09:12:08.184Z,18.80
2019-04-26T09:14:37.319Z,18.80
2019-04-26T09:17:06.651Z,18.80
2019-04-26T09:19:35.547Z,18.90
2019-04-26T09:22:12.731Z,19.00
2019-04-26T09:24:49.866Z,18.90
2019-04-26T09:27:22.935Z,18.90
2019-04-26T09:29:53.331Z,18.70
2019-04-26T09:32:24.177Z,18.80
2019-04-26T09:34:54.249Z,18.80
2019-04-26T09:37:23.185Z,18.90
2019-04-26T09:39:52.042Z,18.90
2019-04-26T09:42:22.908Z,18.90
2019-04-26T09:45:02.076Z,19.00
2019-04-26T09:47:38.102Z,19.00
2019-04-26T09:50:11.293Z,18.90
2019-04-26T09:52:50.452Z,18.90
2019-04-26T09:55:19.209Z,18.80
2019-04-26T09:57:48.077Z,18.80
2019-04-26T10:00:19.175Z,18.80
2019-04-26T10:02:48.000Z,18.70
2019-04-26T10:05:17.698Z,18.70
2019-04-26T10:07:47.350Z,18.60
2019-04-26T10:10:25.670Z,18.70
2019-04-26T10:13:14.917Z,18.50
2019-04-26T10:15:58.131Z,18.50
2019-04-26T10:18:26.392Z,18.40
2019-04-26T10:20:55.153Z,18.40
2019-04-26T10:23:23.910Z,18.40
2019-04-26T10:25:53.651Z,18.40
2019-04-26T10:28:22.590Z,18.30
2019-04-26T10:30:51.597Z,18.30
2019-04-26T10:33:20.416Z,18.20
2019-04-26T10:35:52.581Z,18.10
2019-04-26T10:38:23.679Z,18.00
2019-04-26T10:40:50.040Z,18.00
2019-04-26T10:43:18.786Z,18.00
2019-04-26T10:45:53.562Z,18.00
2019-04-26T10:48:18.377Z,18.10
2019-04-26T10:50:47.307Z,18.00
2019-04-26T10:53:25.752Z,18.00
2019-04-26T10:55:56.041Z,18.10
2019-04-26T10:58:26.431Z,18.20
2019-04-26T11:01:02.368Z,18.20
2019-04-26T11:03:31.202Z,18.20
2019-04-26T11:05:59.932Z,18.30
2019-04-26T11:08:28.774Z,18.40
2019-04-26T11:10:57.674Z,18.30
2019-04-26T11:13:26.551Z,18.30
2019-04-26T11:15:55.453Z,18.30
2019-04-26T11:18:27.739Z,18.30
2019-04-26T11:20:54.853Z,18.40
2019-04-26T11:23:23.658Z,18.30
2019-04-26T11:25:52.545Z,18.30
2019-04-26T11:28:22.864Z,18.40
2019-04-26T11:30:52.519Z,18.50
2019-04-26T11:33:22.435Z,18.60
2019-04-26T11:35:51.231Z,18.70
2019-04-26T11:38:21.733Z,19.00
2019-04-26T11:41:04.973Z,19.30
2019-04-26T11:43:21.089Z,19.70
2019-04-26T11:45:50.557Z,20.20
2019-04-26T11:48:19.558Z,20.60
2019-04-26T11:50:51.824Z,20.70
2019-04-26T11:53:18.697Z,20.60
2019-04-26T11:55:47.506Z,20.40
2019-04-26T11:58:17.769Z,20.40
2019-04-26T12:00:48.371Z,20.30
2019-04-26T12:03:17.129Z,20.20
2019-04-26T12:05:47.594Z,20.00
2019-04-26T12:08:17.988Z,19.80
2019-04-26T12:10:46.922Z,19.70
2019-04-26T12:13:15.747Z,19.60
2019-04-26T12:15:45.413Z,19.60
2019-04-26T12:18:14.346Z,19.60
2019-04-26T12:20:43.225Z,19.60
2019-04-26T12:23:13.661Z,19.90
2019-04-26T12:25:43.583Z,20.10
2019-04-26T12:28:13.121Z,20.20
2019-04-26T12:30:41.968Z,20.40
2019-04-26T12:33:10.749Z,20.50
2019-04-26T12:35:39.579Z,20.80
2019-04-26T12:38:08.378Z,21.00
2019-04-26T12:40:37.331Z,21.00
2019-04-26T12:43:06.228Z,20.80
2019-04-26T12:45:52.892Z,20.80
2019-04-26T12:48:23.274Z,20.70
2019-04-26T12:50:52.208Z,20.70
2019-04-26T12:53:21.109Z,20.90
2019-04-26T12:55:53.236Z,21.20
2019-04-26T12:58:21.905Z,21.40
2019-04-26T13:00:54.219Z,21.70
2019-04-26T13:03:24.936Z,21.80
2019-04-26T13:05:57.670Z,21.90
2019-04-26T13:08:22.382Z,22.20
2019-04-26T13:10:55.691Z,22.20
2019-04-26T13:13:38.070Z,22.40
2019-04-26T13:16:11.405Z,22.60
2019-04-26T13:18:41.134Z,22.70
2019-04-26T13:21:10.937Z,22.90
2019-04-26T13:23:39.765Z,22.90
2019-04-26T13:26:08.691Z,22.90
2019-04-26T13:28:37.598Z,23.00
2019-04-26T13:31:06.554Z,22.90
2019-04-26T13:33:35.379Z,23.00
2019-04-26T13:36:04.568Z,23.10
2019-04-26T13:38:33.431Z,22.90
2019-04-26T13:41:04.334Z,22.70
2019-04-26T13:43:32.894Z,23.00
2019-04-26T13:46:06.107Z,23.10
2019-04-26T13:48:43.683Z,23.30
2019-04-26T13:51:17.237Z,23.40
2019-04-26T13:53:46.075Z,22.90
2019-04-26T13:56:15.004Z,22.70
2019-04-26T13:58:43.955Z,22.90
2019-04-26T14:01:14.490Z,22.60
2019-04-26T14:03:43.467Z,22.60
2019-04-26T14:06:12.398Z,22.70
2019-04-26T14:08:41.236Z,23.10
2019-04-26T14:11:10.045Z,23.20
2019-04-26T14:13:38.979Z,23.20
2019-04-26T14:16:07.880Z,23.20
2019-04-26T14:18:39.092Z,22.70
2019-04-26T14:21:10.898Z,22.50
2019-04-26T14:23:51.082Z,22.30
2019-04-26T14:26:21.929Z,22.10
2019-04-26T14:28:54.308Z,22.10
2019-04-26T14:31:21.622Z,22.40
2019-04-26T14:33:51.975Z,22.60
2019-04-26T14:36:22.650Z,22.40
2019-04-26T14:38:51.448Z,22.20
2019-04-26T14:41:22.576Z,22.00
2019-04-26T14:43:52.613Z,22.10
2019-04-26T14:46:23.018Z,22.10
2019-04-26T14:49:01.400Z,22.30
2019-04-26T14:51:22.618Z,22.50
2019-04-26T14:53:51.520Z,22.60
2019-04-26T14:56:20.440Z,23.00
2019-04-26T14:58:49.364Z,23.10
2019-04-26T15:01:35.001Z,23.50
2019-04-26T15:04:19.686Z,23.20
2019-04-26T15:06:51.978Z,22.90
2019-04-26T15:09:29.729Z,22.80
2019-04-26T15:11:57.034Z,22.70
2019-04-26T15:14:22.896Z,22.50
2019-04-26T15:16:51.832Z,22.50
2019-04-26T15:19:22.502Z,22.70
2019-04-26T15:21:52.329Z,22.90
2019-04-26T15:24:22.656Z,22.70
2019-04-26T15:26:51.648Z,22.30
2019-04-26T15:29:21.268Z,22.10
2019-04-26T15:31:53.654Z,21.70
2019-04-26T15:34:23.618Z,21.50
2019-04-26T15:36:55.615Z,21.10
2019-04-26T15:39:26.011Z,20.10
2019-04-26T15:41:56.492Z,19.40
2019-04-26T15:44:28.372Z,19.30
2019-04-26T15:46:58.974Z,19.20
2019-04-26T15:49:34.705Z,19.10
2019-04-26T15:52:02.737Z,19.10
2019-04-26T15:54:32.367Z,19.20
2019-04-26T15:57:02.159Z,19.00
2019-04-26T15:59:32.588Z,19.00
2019-04-26T16:02:02.481Z,18.90
2019-04-26T16:04:32.413Z,18.90
2019-04-26T16:07:02.409Z,19.20
2019-04-26T16:09:32.466Z,19.20
2019-04-26T16:12:03.379Z,19.30
2019-04-26T16:14:36.553Z,19.40
2019-04-26T16:17:06.412Z,19.50
2019-04-26T16:19:33.218Z,19.30
2019-04-26T16:22:02.981Z,19.10
2019-04-26T16:24:34.237Z,19.20
2019-04-26T16:27:02.794Z,19.30
2019-04-26T16:29:50.885Z,19.20
2019-04-26T16:32:35.807Z,19.10
2019-04-26T16:35:06.467Z,19.10
2019-04-26T16:37:35.589Z,18.90
2019-04-26T16:40:07.761Z,18.90
2019-04-26T16:42:37.826Z,18.90
2019-04-26T16:45:09.888Z,18.90
2019-04-26T16:47:44.996Z,19.10
2019-04-26T16:50:09.463Z,19.00
2019-04-26T16:55:18.230Z,19.00
2019-04-26T16:57:43.770Z,18.90
2019-04-26T17:00:10.416Z,19.00
2019-04-26T17:00:45.297Z,19.00
2019-04-26T17:02:39.582Z,19.10
2019-04-26T17:05:17.712Z,19.10
2019-04-26T17:07:39.966Z,19.10
2019-04-26T17:10:08.844Z,19.10
2019-04-26T17:12:37.756Z,19.10
2019-04-26T17:15:07.838Z,19.20
2019-04-26T17:17:41.174Z,19.10
2019-04-26T17:20:10.908Z,19.30
2019-04-26T17:23:00.822Z,19.30
2019-04-26T17:25:34.853Z,19.20
2019-04-26T17:28:03.753Z,19.10
2019-04-26T17:30:40.801Z,19.20
2019-04-26T17:33:03.225Z,19.20
2019-04-26T17:35:32.774Z,19.20
2019-04-26T17:38:04.999Z,19.20
2019-04-26T17:40:36.298Z,19.20
2019-04-26T17:43:05.407Z,19.20
2019-04-26T17:45:36.346Z,19.20
2019-04-26T17:48:06.573Z,19.10
2019-04-26T17:50:38.984Z,19.00
2019-04-26T17:53:10.691Z,18.90
2019-04-26T17:55:38.326Z,18.80
2019-04-26T17:58:12.549Z,18.80
2019-04-26T18:00:46.002Z,18.60
2019-04-26T18:03:13.130Z,18.50
2019-04-26T18:05:50.014Z,18.40
2019-04-26T18:08:31.428Z,18.30
2019-04-26T18:10:42.758Z,18.30
2019-04-26T18:13:16.398Z,18.20
2019-04-26T18:15:46.941Z,18.10
2019-04-26T18:18:19.627Z,18.00
2019-04-26T18:20:50.100Z,17.90
2019-04-26T18:23:23.328Z,17.80
2019-04-26T18:25:52.717Z,17.70
2019-04-26T18:28:22.767Z,17.60
2019-04-26T18:30:53.151Z,17.70
2019-04-26T18:33:25.943Z,17.60
2019-04-26T18:35:57.587Z,17.70
2019-04-26T18:38:26.655Z,17.70
2019-04-26T18:41:01.010Z,17.80
2019-04-26T18:43:26.157Z,17.80
2019-04-26T18:46:01.114Z,17.90
2019-04-26T18:48:27.088Z,17.90
2019-04-26T18:50:56.076Z,17.90
2019-04-26T18:53:39.461Z,17.90
2019-04-26T18:56:07.588Z,17.90
2019-04-26T18:58:37.999Z,17.70
2019-04-26T19:01:10.136Z,17.80
2019-04-26T19:03:38.995Z,17.90
2019-04-26T19:06:07.827Z,17.80
2019-04-26T19:08:45.476Z,17.90
2019-04-26T19:11:07.577Z,17.80
2019-04-26T19:13:56.339Z,17.80
2019-04-26T19:16:26.536Z,17.80
2019-04-26T19:19:08.819Z,17.60
2019-04-26T19:21:40.570Z,17.60
2019-04-26T19:24:17.302Z,17.80
2019-04-26T19:26:44.228Z,17.90
2019-04-26T19:29:18.065Z,17.90
2019-04-26T19:31:42.969Z,17.70
2019-04-26T19:34:11.889Z,17.50
2019-04-26T19:36:42.086Z,17.80
2019-04-26T19:39:22.786Z,17.80
2019-04-26T19:41:52.002Z,17.40
2019-04-26T19:44:19.030Z,17.30
2019-04-26T19:47:06.861Z,17.20
2019-04-26T19:49:43.170Z,17.10
2019-04-26T19:52:24.889Z,16.70
2019-04-26T19:54:59.135Z,16.60
2019-04-26T19:57:39.090Z,16.50
2019-04-26T20:00:09.594Z,16.30
2019-04-26T20:02:39.264Z,16.30
2019-04-26T20:05:09.446Z,16.20
2019-04-26T20:07:41.622Z,16.30
2019-04-26T20:10:16.729Z,16.40
2019-04-26T20:12:47.700Z,16.50
2019-04-26T20:15:26.541Z,16.50
2019-04-26T20:17:59.278Z,16.60
2019-04-26T20:20:23.822Z,16.50
2019-04-26T20:22:54.331Z,16.40
2019-04-26T20:25:29.943Z,16.30
2019-04-26T20:27:59.917Z,16.30
2019-04-26T20:30:42.213Z,16.40
2019-04-26T20:33:12.204Z,16.80
2019-04-26T20:35:43.822Z,17.00
2019-04-26T20:38:15.991Z,17.30
2019-04-26T20:44:03.134Z,17.50
2019-04-26T20:49:32.166Z,17.20
2019-04-26T20:52:16.549Z,16.90
2019-04-26T20:54:59.611Z,17.00
2019-04-26T20:57:34.386Z,16.80
2019-04-26T21:11:54.470Z,16.90
2019-04-26T21:14:29.333Z,16.80
2019-04-26T21:17:02.032Z,16.80
2019-04-26T21:25:27.782Z,16.50
2019-04-26T21:34:22.113Z,15.90
2019-04-26T21:42:55.319Z,15.50
2019-04-26T21:51:16.310Z,15.20
2019-04-26T21:53:52.998Z,15.20
2019-04-26T21:56:33.892Z,15.20
2019-04-26T21:59:24.353Z,15.70
2019-04-26T22:01:59.105Z,16.00
2019-04-26T22:04:49.738Z,16.10
2019-04-26T22:07:34.981Z,16.10
2019-04-26T22:10:09.342Z,15.80
2019-04-26T22:12:50.452Z,15.60
2019-04-26T22:15:45.471Z,15.60
2019-04-26T22:18:28.765Z,15.90
2019-04-26T22:21:16.882Z,16.10
2019-04-26T22:23:58.973Z,15.80
2019-04-26T22:26:34.019Z,15.60
2019-04-26T22:29:14.213Z,15.50
2019-04-26T22:32:03.964Z,15.60
2019-04-26T22:37:41.341Z,15.60
2019-04-26T22:40:19.949Z,15.60
2019-04-26T22:45:59.206Z,15.30
2019-04-26T22:48:54.874Z,15.20
2019-04-26T22:51:32.922Z,15.00
2019-04-26T22:54:06.399Z,14.50
2019-04-26T22:56:41.414Z,14.10
2019-04-26T22:59:19.052Z,13.80
2019-04-26T23:05:06.153Z,14.20
2019-04-26T23:07:40.036Z,14.40
2019-04-26T23:22:44.249Z,15.40
2019-04-26T23:30:55.304Z,16.30
2019-04-26T23:57:02.918Z,16.20
2019-04-26T23:59:38.200Z,16.40
